Latest Coastal Weather Observations for Robe Airport

IDV60701

Issued at 6:21 am EDT Thursday 14 November 2019 (issued every 10 minutes, with the page automatically refreshed every 10 minutes)

About coastal observations | Map of coastal stations | Coastal observations for VIC | Marine services | Other Formats
Station Details ID: 026105 Name: ROBE AIRFIELD Lat: -37.18 Lon: 139.81 Height: 3.0 m
Data from the previous 72 hours. | See also: Recent months at Robe Airport
Date/Time
EDT
Wind Sea
Height
m
Swell Vis
km
Cloud Weather Temp
°C
Press
hPa
Rain since
9am
mm
Dir  Spd
kts
Gust
kts
Height
m
Period
s
Dir
14/06:00am W 8 13 - - - - - - - 11.8 1017.3 1.2
14/05:30am W 7 14 - - - - - - - 11.3 1017.1 1.2
14/05:00am W 6 12 - - - - - - - 12.1 1017.2 1.2
14/04:30am W 6 11 - - - - - - - 11.6 1017.3 1.2
14/04:00am W 6 10 - - - - - - - 12.0 1017.6 1.0
14/03:30am W 6 11 - - - - - - Rain 11.8 1017.9 1.0
14/03:00am W 7 13 - - - - - - - 11.9 1018.0 0.6
14/02:30am W 8 13 - - - - - - - 11.9 1018.4 0.6
14/02:00am W 7 18 - - - - - - - 11.7 1018.7 0.6
14/01:30am WSW 7 14 - - - - - - - 12.3 1019.1 0.6
14/01:00am W 8 16 - - - - - - - 12.6 1019.4 0.6
14/12:30am W 7 13 - - - - - - - 12.4 1019.4 0.6
14/12:00am W 7 11 - - - - - - - 12.4 1019.4 0.6
 
Date/Time
EDT
Wind Sea
Height
m
Swell Vis
km
Cloud Weather Temp
°C
Press
hPa
Rain since
9am
mm
Dir  Spd
kts
Gust
kts
Height
m
Period
s
Dir
13/11:30pm W 9 15 - - - - - - - 12.3 1019.7 0.6
13/11:00pm WSW 5 11 - - - - - - - 12.2 1019.8 0.4
13/10:30pm W 7 11 - - - - - - - 12.2 1019.9 0.4
13/10:00pm W 8 16 - - - - - - - 12.3 1019.9 0.4
13/09:30pm W 7 12 - - - - - - Recent precip. 12.6 1020.1 0.2
13/09:00pm W 8 14 - - - - - - - 12.9 1019.8 0.0
13/08:30pm W 9 15 - - - - - - - 13.3 1019.8 0.0
13/08:00pm W 9 16 - - - - - - - 13.2 1019.8 0.0
13/07:30pm WSW 10 17 - - - - - - - 12.9 1019.9 0.0
13/07:00pm W 10 18 - - - - - - - 13.5 1019.8 0.0
13/06:30pm WSW 11 21 - - - - - - - 13.2 1019.7 0.0
13/06:00pm W 10 20 - - - - - - - 13.2 1019.5 0.0
13/05:30pm W 11 18 - - - - - - - 13.8 1019.6 0.0
13/05:00pm W 13 20 - - - - - - - 14.9 1019.4 0.0
13/04:30pm W 11 20 - - - - - - - 14.3 1019.6 0.0
13/04:00pm W 12 21 - - - - - - - 14.4 1020.0 0.0
13/03:30pm W 14 23 - - - - - - - 14.4 1019.9 0.0
13/03:00pm W 14 21 - - - - - - - 15.3 1019.9 0.0
13/02:30pm W 15 21 - - - - - - - 14.4 1020.0 0.0
13/02:00pm W 15 28 - - - - - - - 13.7 1020.0 0.0
13/01:51pm W 15 27 - - - - - - - 14.8 1020.0 0.0
13/01:30pm W 15 21 - - - - - - - 14.8 1020.1 0.0
13/01:00pm WSW 12 17 - - - - - - - 15.5 1020.3 0.0
13/12:30pm W 9 13 - - - - - - - 14.3 1020.3 0.0
13/12:00pm W 10 17 - - - - - - - 14.5 1020.4 0.0
13/11:30am W 11 19 - - - - - - - 14.0 1020.3 0.0
13/11:00am W 12 21 - - - - - - - 14.1 1020.2 0.0
13/10:30am W 11 17 - - - - - - - 14.0 1020.3 0.0
13/10:00am W 11 19 - - - - - - - 13.9 1020.0 0.0
13/09:30am W 10 17 - - - - - - - 13.6 1020.4 0.2
13/09:00am WSW 9 15 - - - - - - - 13.2 1020.1 0.2
13/08:30am WSW 8 17 - - - - - - - 12.6 1020.0 0.2
13/08:00am WSW 8 14 - - - - - - - 12.6 1019.8 0.2
13/07:30am WSW 11 19 - - - - - - - 12.4 1019.2 0.2
13/07:00am WSW 7 13 - - - - - - - 11.7 1019.3 0.2
13/06:30am WSW 9 14 - - - - - - - 12.0 1018.8 0.2
13/06:00am SW 9 14 - - - - - - - 11.9 1018.8 0.2
13/05:30am SW 10 16 - - - - - - - 11.4 1018.4 0.2
13/05:00am WSW 11 18 - - - - - - - 11.7 1018.4 0.2
13/04:30am WSW 9 15 - - - - - - - 12.0 1018.4 0.2
13/04:00am WSW 10 19 - - - - - - - 12.1 1018.6 0.2
13/03:30am SW 8 13 - - - - - - - 12.1 1018.7 0.2
13/03:00am SW 10 17 - - - - - - - 12.0 1019.1 0.2
13/02:30am SW 11 17 - - - - - - - 11.9 1019.5 0.2
13/02:00am SW 11 19 - - - - - - - 11.7 1019.8 0.2
13/01:30am SW 10 16 - - - - - - - 11.7 1019.9 0.2
13/01:00am WSW 11 18 - - - - - - - 12.1 1020.2 0.2
13/12:30am WSW 10 17 - - - - - - - 11.8 1020.1 0.2
13/12:00am SW 12 19 - - - - - - - 12.1 1020.1 0.2
 
Date/Time
EDT
Wind Sea
Height
m
Swell Vis
km
Cloud Weather Temp
°C
Press
hPa
Rain since
9am
mm
Dir  Spd
kts
Gust
kts
Height
m
Period
s
Dir
12/11:30pm SW 13 22 - - - - - - - 12.0 1020.2 0.2
12/11:00pm WSW 11 17 - - - - - - - 12.1 1020.1 0.2
12/10:30pm SW 12 21 - - - - - - - 12.0 1020.1 0.2
12/10:00pm SW 9 14 - - - - - - - 12.1 1019.8 0.2
12/09:30pm SW 9 14 - - - - - - - 12.1 1019.5 0.2
12/09:00pm SW 12 20 - - - - - - - 11.9 1019.3 0.2
12/08:30pm SW 14 20 - - - - - - - 11.9 1019.0 0.2
12/08:00pm SW 11 20 - - - - - - - 12.3 1018.8 0.2
12/07:30pm SW 13 23 - - - - - - - 12.7 1018.4 0.2
12/07:00pm SW 13 21 - - - - - - - 12.8 1018.0 0.2
12/06:30pm SW 14 22 - - - - - - - 13.5 1017.7 0.2
12/06:00pm SW 16 25 - - - - - - - 13.8 1017.5 0.2
12/05:30pm SW 14 25 - - - - - - - 13.7 1017.1 0.2
12/05:00pm SW 15 26 - - - - - - - 15.2 1016.9 0.2
12/04:30pm WSW 15 25 - - - - - - - 14.1 1016.5 0.2
12/04:02pm WSW 16 27 - - - - - - - 13.9 1016.3 0.2
12/04:00pm WSW 16 25 - - - - - - - 14.1 1016.3 0.2
12/03:30pm SW 16 29 - - - - - - - 15.1 1016.2 0.2
12/03:00pm WSW 15 28 - - - - - - - 14.9 1016.2 0.2
12/02:56pm WSW 15 28 - - - - - - - 14.2 1016.2 0.2
12/02:30pm WSW 12 23 - - - - - - - 12.5 1016.3 0.2
12/02:00pm WSW 15 27 - - - - - - - 15.1 1015.8 0.0
12/01:30pm WSW 15 23 - - - - - - - 14.9 1015.8 0.0
12/01:00pm WSW 14 24 - - - - - - - 15.6 1015.4 0.0
12/12:45pm WSW 15 26 - - - - - - - 15.2 1015.3 0.0
12/12:30pm WSW 13 21 - - - - - - - 15.7 1015.4 0.0
12/12:00pm WSW 15 25 - - - - - - - 15.0 1015.3 0.0
12/11:56am WSW 15 25 - - - - - - - 15.2 1015.2 0.0
12/11:30am WSW 14 25 - - - - - - - 15.5 1015.0 0.0
12/11:00am WSW 17 28 - - - - - - - 14.5 1014.9 0.0
12/10:30am WSW 15 26 - - - - - - - 14.4 1014.5 0.0
12/10:19am SW 15 27 - - - - - - - 13.0 1014.3 0.0
12/10:00am WSW 13 21 - - - - - - - 13.6 1014.2 0.0
12/09:30am SW 10 17 - - - - - - - 12.7 1014.1 0.0
12/09:00am WSW 11 19 - - - - - - - 13.1 1013.8 0.0
12/08:39am SW 15 25 - - - - - - - 12.9 1013.5 0.0
12/08:30am SW 13 20 - - - - - - - 12.2 1013.3 0.0
12/08:00am SW 14 25 - - - - - - - 11.9 1012.8 0.0
12/07:30am SW 11 18 - - - - - - - 11.9 1012.4 0.0
12/07:00am SW 15 22 - - - - - - - 11.5 1012.0 0.0
12/06:30am SW 14 23 - - - - - - - 11.7 1011.4 0.0
12/06:00am SW 11 17 - - - - - - - 11.6 1010.9 0.0
12/05:30am SW 13 22 - - - - - - - 11.5 1010.7 0.0
12/05:00am SW 15 21 - - - - - - - 11.8 1010.4 0.0
12/04:30am SW 13 23 - - - - - - - 11.4 1010.1 0.0
12/04:00am SW 16 23 - - - - - - - 11.7 1010.0 0.0
12/03:30am SW 17 25 - - - - - - - 12.0 1009.7 0.0
12/03:00am SW 17 23 - - - - - - - 12.1 1009.5 0.0
12/02:30am SSW 14 20 - - - - - - - 11.7 1009.4 0.0
12/02:00am SSW 14 21 - - - - - - - 11.9 1008.9 0.0
12/01:30am SSW 16 24 - - - - - - - 12.1 1008.5 0.0
12/01:00am SSW 15 24 - - - - - - - 12.0 1008.4 0.0
12/12:43am SSW 15 26 - - - - - - - 12.5 1008.2 0.0
12/12:30am SSW 18 26 - - - - - - - 12.4 1007.9 0.0
12/12:00am SSW 18 25 - - - - - - - 12.8 1007.2 0.0
 
Date/Time
EDT
Wind Sea
Height
m
Swell Vis
km
Cloud Weather Temp
°C
Press
hPa
Rain since
9am
mm
Dir  Spd
kts
Gust
kts
Height
m
Period
s
Dir
11/11:30pm SSW 19 26 - - - - - - - 12.7 1006.6 0.0
11/11:00pm SSW 19 27 - - - - - - - 12.8 1006.1 0.0
11/10:30pm SSW 17 26 - - - - - - - 13.7 1005.1 0.0
11/10:00pm SSW 16 23 - - - - - - - 14.2 1004.0 0.0
11/09:30pm S 12 18 - - - - - - - 14.4 1003.1 0.0
11/09:00pm S 11 17 - - - - - - - 14.7 1002.8 0.0
11/08:30pm SW 15 24 - - - - - - - 16.4 1002.6 0.0
11/08:00pm SW 7 13 - - - - - - - 18.9 1002.2 0.0
11/07:30pm WSW 10 16 - - - - - - - 18.9 1002.5 0.0
11/07:00pm W 13 24 - - - - - - - 22.8 1001.9 0.0
11/06:30pm NNW 15 20 - - - - - - - 23.5 1001.1 0.0
11/06:00pm NW 12 17 - - - - - - - 22.0 1002.1 0.0
11/05:30pm NW 17 23 - - - - - - - 25.3 1002.2 0.0
11/05:00pm N 19 26 - - - - - - - 25.5 1000.7 0.0
11/04:46pm N 19 30 - - - - - - - 24.7 1001.2 0.0
11/04:45pm N 18 25 - - - - - - - 24.3 1001.5 0.0
11/04:30pm NNW 15 20 - - - - - - - 21.3 1003.6 0.0
11/04:00pm NNW 15 19 - - - - - - - 21.3 1004.5 0.0
11/03:30pm NNW 16 20 - - - - - - - 22.1 1005.0 0.0
11/03:00pm NNW 12 17 - - - - - - - 22.4 1005.5 0.0
11/02:30pm NNW 15 19 - - - - - - - 23.2 1005.7 0.0
11/02:00pm NNW 18 26 - - - - - - - 24.5 1005.9 0.0
11/01:30pm NNW 18 27 - - - - - - - 24.0 1006.2 0.0
11/01:00pm NNW 20 26 - - - - - - - 25.5 1006.8 0.0
11/12:30pm NNW 19 26 - - - - - - - 23.7 1007.2 0.0
11/12:00pm NNW 19 25 - - - - - - - 24.1 1007.5 0.0
11/11:30am NNW 18 22 - - - - - - - 24.2 1007.6 0.0
11/11:00am NNW 17 24 - - - - - - - 23.2 1007.8 0.0
11/10:30am NNW 17 23 - - - - - - - 22.2 1008.2 0.0
11/10:00am N 14 19 - - - - - - - 21.6 1008.7 0.0
11/09:30am N 14 18 - - - - - - - 19.3 1009.1 0.0
11/09:00am N 12 16 - - - - - - - 17.6 1009.3 0.0
11/08:30am N 10 14 - - - - - - - 14.8 1009.5 0.0
11/08:00am N 8 11 - - - - - - - 12.3 1009.6 0.0
11/07:30am NNE 6 7 - - - - - - - 9.7 1009.6 0.0
11/07:00am NNE 7 9 - - - - - - - 8.2 1009.7 0.0

Other formats

Comma delimited format used in spreadsheet applications
http://www.bom.gov.au/fwo/IDV60701/IDV60701.95816.axf

JavaScript Object Notation format (JSON) in row-major order
http://www.bom.gov.au/fwo/IDV60701/IDV60701.95816.json

Data quality

Most of these data are generated automatically and are frequently updated. Quality checks on data are not normally performed. It is possible for incorrect values to appear. Refer to information at About Latest Weather Observations and please check the disclaimer before using these data.